Time;durP1;ratioP1;P1;durP2;ratioP2;P2;SDS_P1;SDS_P2;PMS_P1;PMS_P2;Temp;Humidity;BMP_temperature;BMP_pressure;BME280_temperature;BME280_humidity;BME280_pressure;Samples;Min_cycle;Max_cycle;Signal;HPM_P1;HPM_P2
2022/06/25 13:56:25;;;;;;;2.67;2.53;;;38.10;41.00;;;31.31;28.32;95216.34;5047415;28;20453;-49
2022/06/25 13:58:51;;;;;;;3.05;2.90;;;37.90;35.50;;;31.02;29.45;95211.09;5042727;28;20029;-52
2022/06/25 14:01:19;;;;;;;3.03;2.75;;;38.40;33.10;;;31.13;28.20;95204.72;5027669;28;20107;-47
2022/06/25 14:03:54;;;;;;;2.40;2.30;;;38.70;30.90;;;31.57;28.71;95210.19;5027598;28;20025;-47
2022/06/25 14:06:20;;;;;;;2.67;2.53;;;39.20;29.50;;;31.20;25.25;95210.16;5027603;28;20079;-49
2022/06/25 14:08:46;;;;;;;2.53;2.40;;;39.60;28.40;;;31.38;28.02;95205.28;5025455;28;20025;-49
2022/06/25 14:11:20;;;;;;;2.95;2.75;;;40.00;27.70;;;31.82;27.59;95202.88;5027172;28;20387;-50
2022/06/25 14:13:47;;;;;;;3.20;3.00;;;40.40;26.90;;;32.16;26.97;95208.38;5027294;28;20033;-51
2022/06/25 14:16:14;;;;;;;5.10;3.10;;;40.80;26.60;;;32.25;26.07;95212.19;5027216;28;20048;-51
2022/06/25 14:18:43;;;;;;;2.53;2.33;;;41.20;25.70;;;32.63;25.94;95209.31;5026798;28;20553;-52
2022/06/25 14:21:09;;;;;;;4.15;2.70;;;41.50;25.40;;;32.33;26.05;95203.81;5025797;28;20623;-48
2022/06/25 14:23:50;;;;;;;3.30;3.10;;;41.90;24.80;;;31.76;27.21;95205.28;5006138;28;20021;-51
2022/06/25 14:26:16;;;;;;;;;;;42.10;24.10;;;32.30;25.58;95201.88;5010993;28;20048;-52
2022/06/25 14:28:42;;;;;;;3.25;3.05;;;42.40;25.40;;;32.30;26.94;95193.63;5026754;28;19958;-50
2022/06/25 14:31:09;;;;;;;3.17;2.97;;;42.70;24.40;;;32.19;26.89;95196.53;5026852;28;20024;-50
2022/06/25 14:33:39;;;;;;;3.85;3.65;;;42.80;23.70;;;32.38;25.68;95190.34;5009229;28;20082;-51
2022/06/25 14:44:24;;;;;;;3.65;3.45;;;43.50;22.40;;;33.52;24.40;95178.69;5027195;28;20059;-55
2022/06/25 14:46:54;;;;;;;3.33;3.13;;;43.70;22.10;;;33.21;25.72;95186.34;5025723;28;20032;-51
2022/06/25 14:49:22;;;;;;;3.95;3.75;;;44.10;21.90;;;33.15;25.41;95180.50;5026327;28;20041;-50
2022/06/25 14:51:48;;;;;;;3.92;3.70;;;44.40;21.40;;;33.22;26.15;95177.66;5026726;28;20078;-52
2022/06/25 14:54:14;;;;;;;3.67;3.47;;;44.60;21.40;;;33.53;24.40;95183.00;5026374;28;20068;-53
2022/06/25 14:56:41;;;;;;;3.95;3.75;;;45.00;21.00;;;33.37;23.57;95178.94;5041613;28;20443;-53
2022/06/25 14:59:09;;;;;;;4.18;3.95;;;45.40;20.40;;;33.57;23.67;95175.47;5024763;28;20361;-50
2022/06/25 15:01:35;;;;;;;4.20;4.00;;;45.80;19.90;;;33.76;23.12;95173.91;5021515;28;20033;-50
2022/06/25 15:04:03;;;;;;;4.70;4.22;;;46.20;19.60;;;33.62;23.16;95178.47;5011401;28;20373;-51
2022/06/25 15:06:31;;;;;;;3.97;3.78;;;46.60;19.10;;;33.94;24.10;95179.03;4991746;28;20036;-49
2022/06/25 15:08:57;;;;;;;3.22;3.13;;;47.00;19.10;;;34.26;23.78;95175.66;5002535;28;20373;-54
2022/06/25 15:11:23;;;;;;;4.15;3.95;;;47.30;18.90;;;34.85;22.40;95180.25;5004798;28;20028;-50
2022/06/25 15:13:50;;;;;;;4.00;3.80;;;47.70;18.60;;;34.81;22.95;95181.53;4992943;28;20401;-50
2022/06/25 15:16:15;;;;;;;4.65;4.45;;;48.30;18.40;;;34.37;23.16;95178.94;5011554;28;20029;-48
2022/06/25 15:18:41;;;;;;;4.32;3.97;;;48.70;18.00;;;33.74;23.81;95173.53;4999840;28;20025;-49
2022/06/25 15:21:13;;;;;;;4.47;4.20;;;49.00;17.60;;;34.14;22.97;95168.03;5004668;28;20021;-52
2022/06/25 15:23:39;;;;;;;4.38;4.18;;;49.40;17.30;;;34.49;23.32;95178.25;4993687;28;20041;-53
2022/06/25 15:26:08;;;;;;;4.75;4.35;;;49.80;17.10;;;34.64;21.53;95177.97;4999893;28;20055;-50
2022/06/25 15:28:34;;;;;;;5.22;4.93;;;50.30;17.20;;;35.18;22.11;95166.41;4991181;28;20020;-49
2022/06/25 15:31:06;;;;;;;5.95;5.55;;;50.90;17.00;;;34.75;22.20;95159.91;5005538;28;20488;-45
2022/06/25 15:33:32;;;;;;;6.50;6.13;;;51.60;16.20;;;35.03;22.41;95157.66;5007444;28;20029;-48
2022/06/25 15:35:58;;;;;;;6.78;6.45;;;52.20;16.00;;;35.56;22.62;95161.03;5007887;28;20037;-48
2022/06/25 15:38:25;;;;;;;9.55;8.95;;;52.80;15.80;;;35.91;21.42;95152.94;4991064;28;20148;-53
2022/06/25 15:40:51;;;;;;;8.60;8.20;;;53.20;15.50;;;35.93;22.00;95150.53;4996094;28;20033;-47
2022/06/25 15:43:17;;;;;;;9.70;9.23;;;53.70;15.30;;;36.07;20.86;95141.81;5003383;28;20040;-47
2022/06/25 15:45:42;;;;;;;10.73;10.02;;;54.00;14.80;;;35.94;19.84;95145.75;5003520;28;20024;-54
2022/06/25 15:48:08;;;;;;;10.90;10.30;;;54.20;14.40;;;36.59;20.82;95151.72;5005419;28;20029;-48
2022/06/25 15:50:39;;;;;;;11.23;10.45;;;54.50;14.50;;;36.64;20.49;95141.31;4996711;28;20384;-57
2022/06/25 15:53:09;;;;;;;10.60;10.10;;;54.70;14.30;;;36.87;20.25;95142.94;4991571;28;20029;-46
2022/06/25 15:55:35;;;;;;;10.23;9.65;;;54.90;14.70;;;36.62;20.34;95146.50;5017995;28;20133;-45
2022/06/25 15:58:02;;;;;;;10.18;9.40;;;54.90;14.00;;;36.79;21.09;95140.41;4985683;28;20028;-47
2022/06/25 16:00:28;;;;;;;9.35;8.85;;;54.80;14.00;;;37.30;20.45;95133.97;4993691;28;20033;-47
2022/06/25 16:02:54;;;;;;;9.20;8.60;;;54.80;14.50;;;36.74;21.07;95146.50;4987270;28;20108;-50
2022/06/25 16:05:20;;;;;;;8.75;8.35;;;54.90;13.90;;;35.84;21.24;95144.84;5005564;28;20369;-47
2022/06/25 16:07:52;;;;;;;8.48;7.93;;;54.50;13.60;;;36.06;20.64;95143.03;5005830;28;20519;-45
2022/06/25 16:10:25;;;;;;;5.28;5.00;;;53.90;13.70;;;35.90;21.63;95135.53;5004939;28;20415;-45
2022/06/25 16:12:53;;;;;;;6.63;6.32;;;53.10;14.00;;;36.21;23.31;95137.06;5007129;28;20024;-49
2022/06/25 16:15:26;;;;;;;6.55;6.22;;;52.90;14.50;;;36.31;20.90;95136.72;4999022;28;20116;-46
2022/06/25 16:17:55;;;;;;;7.35;6.95;;;53.30;14.30;;;36.57;21.19;95137.53;4999343;28;20025;-45
2022/06/25 16:20:26;;;;;;;6.57;6.28;;;53.70;14.10;;;36.45;21.52;95132.75;5002493;28;20471;-49
2022/06/25 16:22:52;;;;;;;8.50;8.10;;;54.10;14.00;;;36.57;21.52;95133.97;5007272;28;20025;-45
2022/06/25 16:25:18;;;;;;;7.55;7.15;;;54.40;13.80;;;35.79;22.27;95129.56;5004284;28;20043;-47
2022/06/25 16:27:46;;;;;;;7.93;7.53;;;54.70;13.70;;;35.05;23.02;95135.13;4996823;28;20031;-48
2022/06/25 16:30:12;;;;;;;8.70;8.20;;;54.70;13.60;;;35.03;24.16;95130.00;4992031;28;20030;-49
2022/06/25 16:32:38;;;;;;;8.75;8.25;;;54.60;13.70;;;34.36;24.23;95124.09;5001582;28;20064;-45
2022/06/25 16:35:04;;;;;;;7.30;6.90;;;54.40;14.10;;;34.09;24.30;95120.31;4985557;28;20036;-48
2022/06/25 16:37:30;;;;;;;6.90;6.50;;;54.30;13.60;;;34.44;24.84;95117.19;5007238;28;20017;-48
2022/06/25 16:39:56;;;;;;;5.82;5.45;;;54.00;13.80;;;34.92;24.72;95113.66;4993562;28;20056;-47
2022/06/25 16:42:22;;;;;;;4.65;4.45;;;53.30;14.10;;;35.23;24.10;95122.38;5003161;28;20021;-46
2022/06/25 16:44:47;;;;;;;5.75;5.45;;;52.50;14.40;;;35.10;24.62;95113.22;5007588;28;20026;-47
2022/06/25 16:47:13;;;;;;;5.95;5.55;;;52.00;14.60;;;34.34;25.30;95104.41;5003654;28;20072;-46
2022/06/25 16:49:40;;;;;;;5.60;5.30;;;52.30;14.70;;;34.04;24.72;95112.56;5006872;28;20063;-46
2022/06/25 16:52:06;;;;;;;5.38;4.97;;;52.40;14.50;;;33.62;24.43;95103.16;4996411;28;20413;-46
2022/06/25 16:54:32;;;;;;;5.80;5.30;;;52.50;14.30;;;33.48;24.99;95097.91;4990446;28;20054;-46
2022/06/25 16:57:00;;;;;;;6.30;5.68;;;52.50;14.20;;;33.88;25.60;95095.13;4990415;28;20052;-47
2022/06/25 16:59:27;;;;;;;6.43;6.05;;;52.40;14.30;;;33.67;25.07;95096.38;4978978;28;20101;-47
2022/06/25 17:01:54;;;;;;;6.00;5.70;;;52.40;14.20;;;34.07;26.33;95097.13;4991375;28;20033;-46
2022/06/25 17:04:26;;;;;;;6.65;6.07;;;52.50;14.40;;;34.02;24.88;95094.84;4990691;28;20032;-46
2022/06/25 17:06:55;;;;;;;5.53;5.22;;;52.60;14.30;;;33.60;25.87;95089.81;4986650;28;20037;-48
2022/06/25 17:09:29;;;;;;;5.72;5.43;;;52.30;14.30;;;33.64;25.83;95098.00;5005943;28;20029;-47
2022/06/25 17:11:55;;;;;;;4.18;3.97;;;52.30;14.30;;;32.63;26.89;95092.75;5006163;28;20124;-50
2022/06/25 17:14:21;;;;;;;3.17;2.88;;;51.90;14.30;;;31.99;27.63;95099.97;4990252;28;20502;-54
2022/06/25 17:16:52;;;;;;;2.03;1.92;;;51.00;14.40;;;31.48;29.34;95096.31;5009263;28;20056;-49
2022/06/25 17:19:18;;;;;;;;;;;48.50;15.30;;;31.00;28.98;95095.25;4976685;28;20516;-50
2022/06/25 17:21:44;;;;;;;1.40;1.30;;;45.70;16.50;;;30.51;30.56;95082.69;5005421;28;20401;-46
2022/06/25 17:24:13;;;;;;;2.10;1.50;;;43.40;17.90;;;30.04;32.73;95085.00;4989185;28;20028;-46
2022/06/25 17:26:39;;;;;;;1.35;1.25;;;41.10;19.60;;;29.47;33.13;95083.31;4989395;28;20040;-53
2022/06/25 17:29:05;;;;;;;1.50;1.40;;;39.30;20.70;;;28.93;35.50;95083.47;4980414;28;20025;-49
2022/06/25 17:31:35;;;;;;;2.70;2.50;;;37.90;22.20;;;28.53;34.35;95073.72;4987123;28;20481;-45
2022/06/25 17:34:02;;;;;;;2.80;1.60;;;36.70;23.80;;;28.04;36.44;95072.50;4985302;28;20426;-45
2022/06/25 17:36:28;;;;;;;1.70;1.15;;;35.60;23.90;;;27.41;35.73;95075.44;4988871;28;20022;-47
2022/06/25 17:38:54;;;;;;;1.40;1.30;;;34.70;24.40;;;26.73;36.37;95071.56;5014314;28;20099;-55
2022/06/25 17:41:20;;;;;;;1.30;1.05;;;34.00;24.90;;;26.32;37.37;95071.63;5004763;28;20040;-44
2022/06/25 17:43:53;;;;;;;1.30;1.20;;;33.30;25.50;;;26.19;38.77;95073.09;4990049;28;20085;-45
2022/06/25 17:46:27;;;;;;;2.60;1.02;;;32.70;26.40;;;25.91;39.61;95071.66;4997395;28;20111;-46
2022/06/25 17:48:59;;;;;;;1.33;0.80;;;32.30;26.90;;;25.80;39.70;95073.50;5009095;28;20045;-44
2022/06/25 17:51:24;;;;;;;1.20;1.00;;;31.80;27.60;;;25.65;39.67;95067.09;5008666;28;20025;-52
2022/06/25 17:54:15;;;;;;;1.15;0.95;;;31.40;27.80;;;25.40;40.74;95072.28;5009282;28;20276;-45
2022/06/25 17:56:40;;;;;;;1.33;0.93;;;31.10;28.50;;;25.25;41.26;95068.59;5009126;28;20021;-46
2022/06/25 17:59:12;;;;;;;4.20;1.10;;;30.70;28.80;;;25.06;41.11;95072.22;5007500;28;20028;-49
2022/06/25 18:01:38;;;;;;;0.95;0.80;;;30.50;29.30;;;24.96;42.54;95075.59;5007863;28;20033;-45
2022/06/25 18:04:07;;;;;;;0.90;0.80;;;30.20;29.50;;;24.85;41.99;95070.00;5008962;28;20025;-51
2022/06/25 18:06:32;;;;;;;2.78;1.10;;;30.00;30.00;;;24.85;42.54;95077.38;5009301;28;20021;-48
2022/06/25 18:09:01;;;;;;;2.08;1.00;;;29.70;30.30;;;24.81;43.54;95077.31;5008744;28;20506;-45
2022/06/25 18:11:27;;;;;;;1.27;1.00;;;29.60;31.20;;;24.64;42.35;95078.66;5008865;28;20029;-46
2022/06/25 18:13:58;;;;;;;0.70;0.70;;;29.30;31.40;;;24.56;44.29;95076.97;5009500;28;20029;-45
2022/06/25 18:16:25;;;;;;;0.80;0.80;;;29.10;32.00;;;24.49;44.37;95078.81;4989020;28;20021;-46
2022/06/25 18:18:51;;;;;;;1.67;0.98;;;28.90;32.40;;;24.39;44.23;95078.25;4992369;28;20021;-46
2022/06/25 18:21:22;;;;;;;1.30;0.90;;;28.70;32.80;;;24.27;46.03;95078.44;4989713;28;20505;-49
2022/06/25 18:23:51;;;;;;;1.15;0.80;;;28.50;33.50;;;24.20;46.51;95081.84;4977598;28;20428;-46
2022/06/25 18:26:17;;;;;;;1.33;1.23;;;28.30;34.20;;;24.09;47.52;95080.88;4989206;28;20366;-46
2022/06/25 18:28:43;;;;;;;1.00;0.90;;;28.10;34.70;;;23.87;47.74;95085.16;4989063;28;20048;-47
2022/06/25 18:31:09;;;;;;;3.30;1.20;;;27.90;35.20;;;23.66;49.42;95082.00;4991376;28;20055;-51
2022/06/25 18:33:37;;;;;;;1.10;0.98;;;27.70;35.80;;;23.43;48.71;95092.84;4977508;28;20462;-49
2022/06/25 18:36:09;;;;;;;1.77;1.15;;;27.50;36.20;;;23.24;50.04;95088.97;5000376;28;20030;-47
2022/06/25 18:38:37;;;;;;;1.17;0.90;;;27.30;36.80;;;23.06;50.86;95096.78;4978503;28;20026;-47
2022/06/25 18:41:06;;;;;;;1.20;1.05;;;27.10;37.20;;;22.91;50.58;95099.50;4988473;28;20116;-45
2022/06/25 18:43:33;;;;;;;1.40;1.23;;;27.00;37.50;;;22.70;52.06;95099.81;4993115;28;20032;-49
2022/06/25 18:45:59;;;;;;;0.98;0.85;;;26.80;38.00;;;22.52;52.45;95102.13;4992652;28;20021;-49
2022/06/25 18:48:26;;;;;;;1.77;1.02;;;26.60;38.40;;;22.30;55.29;95100.84;4998868;28;20026;-48
2022/06/25 18:50:55;;;;;;;4.20;1.38;;;26.40;39.20;;;22.11;56.19;95105.00;4992437;28;20380;-46
2022/06/25 18:53:21;;;;;;;1.55;1.05;;;26.20;39.90;;;21.91;55.92;95104.13;4993808;28;20049;-46
2022/06/25 18:55:47;;;;;;;1.88;0.80;;;26.00;40.40;;;21.68;57.52;95108.53;5006919;28;20041;-45
2022/06/25 18:58:16;;;;;;;2.45;1.85;;;25.80;40.90;;;21.60;59.14;95112.19;4992790;28;20435;-45
2022/06/25 19:00:45;;;;;;;1.10;1.00;;;25.60;42.10;;;21.38;59.87;95105.41;5007591;28;20124;-45
2022/06/25 19:03:19;;;;;;;1.27;0.90;;;25.50;42.20;;;21.16;59.99;95107.47;5010175;28;20112;-45
2022/06/25 19:05:55;;;;;;;1.88;1.10;;;25.30;42.90;;;21.04;60.97;95110.22;5010859;28;20091;-45
2022/06/25 19:08:26;;;;;;;0.98;0.98;;;25.10;43.50;;;20.93;61.65;95109.09;5011042;28;20045;-44
2022/06/25 19:10:55;;;;;;;1.20;1.10;;;24.90;44.00;;;20.80;61.52;95116.47;4993996;28;20430;-44
2022/06/25 19:13:27;;;;;;;1.13;1.00;;;24.70;44.30;;;20.63;62.07;95122.13;5011336;28;20353;-46
2022/06/25 19:15:52;;;;;;;1.05;1.00;;;24.50;44.80;;;20.50;62.96;95118.63;5010884;28;20033;-44
2022/06/25 19:18:21;;;;;;;5.07;1.15;;;24.40;44.90;;;20.26;63.85;95120.19;5012045;28;20086;-43
2022/06/25 19:20:47;;;;;;;1.73;1.20;;;24.20;45.60;;;20.09;64.49;95106.91;5001836;28;20064;-44
2022/06/25 19:23:16;;;;;;;2.58;1.10;;;24.00;45.90;;;19.93;65.00;95105.94;4991111;28;20032;-46
2022/06/25 19:25:44;;;;;;;1.30;1.20;;;23.90;46.40;;;19.83;65.61;95109.88;5006916;28;20029;-46
2022/06/25 19:28:10;;;;;;;1.85;1.30;;;23.70;46.70;;;19.64;65.87;95116.56;4991911;28;20079;-46
2022/06/25 19:30:36;;;;;;;2.25;1.15;;;23.60;47.10;;;19.52;66.09;95113.00;4965563;28;20029;-48
2022/06/25 19:33:03;;;;;;;3.63;1.30;;;23.40;47.30;;;19.47;66.47;95121.34;4992957;28;20049;-49
2022/06/25 19:35:29;;;;;;;2.35;1.15;;;23.30;47.90;;;19.35;66.43;95120.16;4992231;28;20040;-45
2022/06/25 19:37:55;;;;;;;4.25;1.00;;;23.20;48.20;;;19.17;67.28;95116.81;5006261;28;20021;-52
2022/06/25 19:40:22;;;;;;;1.40;1.30;;;23.10;48.40;;;19.08;67.25;95121.50;4997522;28;20029;-44
2022/06/25 19:42:54;;;;;;;1.60;1.10;;;22.90;48.70;;;18.99;67.14;95118.09;5009894;28;20033;-45
2022/06/25 19:45:21;;;;;;;3.08;1.17;;;22.80;49.20;;;18.92;67.82;95123.19;5011919;28;20064;-45
2022/06/25 19:47:53;;;;;;;2.80;1.08;;;22.70;49.20;;;18.82;67.64;95127.09;5011034;28;20032;-47
2022/06/25 19:50:19;;;;;;;5.57;1.25;;;22.60;49.60;;;18.71;67.83;95126.66;5010518;28;20037;-47
2022/06/25 19:52:45;;;;;;;1.95;1.00;;;22.50;49.60;;;18.61;67.65;95126.22;5011031;28;20033;-45
2022/06/25 19:55:11;;;;;;;3.72;1.48;;;22.40;49.90;;;18.56;68.58;95135.31;4976992;28;20128;-47
2022/06/25 19:57:40;;;;;;;1.50;1.13;;;22.40;50.10;;;18.53;68.58;95140.56;4993175;28;20135;-45
2022/06/25 20:00:11;;;;;;;1.98;1.10;;;22.30;50.40;;;18.45;69.00;95147.56;5011620;28;20030;-45
2022/06/25 20:02:40;;;;;;;1.80;0.95;;;22.30;50.80;;;18.42;69.39;95149.00;5009775;28;20132;-47
2022/06/25 20:05:13;;;;;;;1.45;1.20;;;22.20;50.80;;;18.39;69.14;95149.66;5010132;28;20041;-45
2022/06/25 20:07:43;;;;;;;3.45;0.95;;;22.20;51.20;;;18.38;69.50;95148.09;5000572;28;20116;-45
2022/06/25 20:10:17;;;;;;;1.40;1.20;;;22.10;51.10;;;18.41;69.48;95162.81;5007453;28;20079;-44
2022/06/25 20:12:46;;;;;;;1.63;1.17;;;22.10;51.30;;;18.40;69.90;95156.66;5011001;28;20026;-45
2022/06/25 20:15:23;;;;;;;1.73;1.02;;;22.10;51.50;;;18.42;68.91;95159.00;5010805;28;20037;-47
2022/06/25 20:17:52;;;;;;;1.83;1.20;;;22.10;51.70;;;18.45;69.63;95167.22;5010930;28;20068;-44
2022/06/25 20:20:18;;;;;;;1.08;0.85;;;22.10;51.80;;;18.47;70.13;95166.94;5011060;28;20120;-45
2022/06/25 20:22:46;;;;;;;1.98;1.10;;;22.10;51.80;;;18.52;69.63;95166.75;4993324;28;20530;-45
2022/06/25 20:25:14;;;;;;;1.63;1.10;;;22.10;52.00;;;18.57;69.78;95173.84;5010336;28;20025;-45
2022/06/25 20:27:44;;;;;;;3.47;1.17;;;22.20;52.80;;;18.62;69.22;95181.78;5009167;28;20021;-48
2022/06/25 20:30:10;;;;;;;1.52;1.27;;;22.20;52.40;;;18.65;69.09;95190.00;5010711;28;20029;-44
2022/06/25 20:32:37;;;;;;;1.10;1.00;;;22.20;52.20;;;18.69;69.43;95185.53;4998943;28;20138;-44
2022/06/25 20:35:04;;;;;;;2.08;1.10;;;22.30;52.30;;;18.77;69.32;95185.84;5025647;28;20029;-44
2022/06/25 20:37:30;;;;;;;2.80;1.20;;;22.30;52.40;;;18.84;69.08;95196.91;5009252;28;20036;-43
2022/06/25 20:39:56;;;;;;;1.35;1.10;;;22.40;52.50;;;18.89;68.65;95199.41;5008689;28;20021;-49
2022/06/25 20:42:22;;;;;;;1.35;1.25;;;22.40;52.50;;;18.94;66.74;95208.13;5009702;28;20065;-44
2022/06/25 20:44:48;;;;;;;1.60;1.08;;;22.50;52.30;;;19.03;66.19;95221.56;4981441;28;20040;-44
2022/06/25 20:47:16;;;;;;;3.30;1.67;;;22.60;52.20;;;19.14;66.09;95227.38;5004292;28;20029;-47
2022/06/25 20:49:42;;;;;;;1.80;1.10;;;22.60;52.10;;;19.24;64.81;95228.88;5010290;28;20078;-45
2022/06/25 20:52:09;;;;;;;1.80;1.10;;;22.70;51.80;;;19.33;63.60;95238.50;4990578;28;20478;-46
2022/06/25 20:54:35;;;;;;;1.60;1.15;;;22.80;51.60;;;19.42;63.38;95241.16;4998840;28;20045;-43
2022/06/25 20:57:03;;;;;;;0.90;0.90;;;22.90;51.40;;;19.50;62.63;95242.22;4993436;28;20353;-44
2022/06/25 20:59:32;;;;;;;1.08;0.98;;;23.00;51.20;;;19.60;62.19;95239.91;5001410;28;20030;-46
2022/06/25 21:01:58;;;;;;;2.78;1.40;;;23.00;50.80;;;19.69;62.97;95237.16;5002006;28;20495;-44
2022/06/25 21:09:55;;;;;;;4.82;1.40;;;23.20;51.10;;;19.76;65.76;95231.22;5011203;28;20087;-47
2022/06/25 21:12:26;;;;;;;1.67;1.00;;;23.20;51.70;;;19.72;64.89;95235.72;4993607;28;20025;-43
2022/06/25 21:14:52;;;;;;;3.40;1.25;;;23.20;51.20;;;19.61;66.63;95232.59;5011250;28;20340;-45
2022/06/25 21:17:18;;;;;;;2.92;1.30;;;23.10;51.20;;;19.47;67.64;95235.56;5010618;28;20028;-46
2022/06/25 21:19:47;;;;;;;1.90;1.00;;;23.10;51.40;;;19.49;68.28;95229.81;4980345;28;20034;-43
